sensor_id;sensor_type;location;lat;lon;timestamp;pressure;altitude;pressure_sealevel;temperature
73894;BMP280;62699;50.534;12.784;2022-11-20T00:00:46;95802.16;;;-8.39
73894;BMP280;62699;50.534;12.784;2022-11-20T00:05:46;95799.53;;;-8.42
73894;BMP280;62699;50.534;12.784;2022-11-20T00:10:46;95802.53;;;-8.47
73894;BMP280;62699;50.534;12.784;2022-11-20T00:15:47;95805.13;;;-8.47
73894;BMP280;62699;50.534;12.784;2022-11-20T00:20:47;95805.50;;;-8.49
73894;BMP280;62699;50.534;12.784;2022-11-20T00:25:47;95801.03;;;-8.52
73894;BMP280;62699;50.534;12.784;2022-11-20T00:30:48;95808.09;;;-8.52
73894;BMP280;62699;50.534;12.784;2022-11-20T00:35:48;95810.31;;;-8.54
73894;BMP280;62699;50.534;12.784;2022-11-20T00:40:55;95806.63;;;-8.57
73894;BMP280;62699;50.534;12.784;2022-11-20T00:46:09;95804.38;;;-8.58
73894;BMP280;62699;50.534;12.784;2022-11-20T00:51:16;95814.03;;;-8.55
73894;BMP280;62699;50.534;12.784;2022-11-20T00:56:19;95817.06;;;-8.57
73894;BMP280;62699;50.534;12.784;2022-11-20T01:01:24;95804.38;;;-8.58
73894;BMP280;62699;50.534;12.784;2022-11-20T01:06:26;95817.03;;;-8.60
73894;BMP280;62699;50.534;12.784;2022-11-20T01:11:30;95813.28;;;-8.63
73894;BMP280;62699;50.534;12.784;2022-11-20T01:16:33;95806.56;;;-8.64
73894;BMP280;62699;50.534;12.784;2022-11-20T01:21:36;95806.94;;;-8.66
73894;BMP280;62699;50.534;12.784;2022-11-20T01:26:38;95800.25;;;-8.67
73894;BMP280;62699;50.534;12.784;2022-11-20T01:31:39;95795.41;;;-8.68
73894;BMP280;62699;50.534;12.784;2022-11-20T01:36:41;95787.94;;;-8.77
73894;BMP280;62699;50.534;12.784;2022-11-20T01:41:42;95781.97;;;-8.74
73894;BMP280;62699;50.534;12.784;2022-11-20T01:47:04;95782.72;;;-8.73
73894;BMP280;62699;50.534;12.784;2022-11-20T01:52:08;95778.97;;;-8.76
73894;BMP280;62699;50.534;12.784;2022-11-20T01:57:11;95775.25;;;-8.82
73894;BMP280;62699;50.534;12.784;2022-11-20T02:02:12;95770.06;;;-8.82
73894;BMP280;62699;50.534;12.784;2022-11-20T02:07:13;95767.03;;;-8.84
73894;BMP280;62699;50.534;12.784;2022-11-20T02:12:14;95764.81;;;-8.89
73894;BMP280;62699;50.534;12.784;2022-11-20T02:17:34;95771.50;;;-8.84
73894;BMP280;62699;50.534;12.784;2022-11-20T02:22:39;95766.31;;;-8.88
73894;BMP280;62699;50.534;12.784;2022-11-20T02:27:41;95772.66;;;-8.89
73894;BMP280;62699;50.534;12.784;2022-11-20T02:32:42;95764.81;;;-8.89
73894;BMP280;62699;50.534;12.784;2022-11-20T02:37:42;95755.47;;;-8.93
73894;BMP280;62699;50.534;12.784;2022-11-20T02:42:43;95754.34;;;-8.96
73894;BMP280;62699;50.534;12.784;2022-11-20T02:47:43;95755.84;;;-8.99
73894;BMP280;62699;50.534;12.784;2022-11-20T02:52:43;95753.22;;;-8.95
73894;BMP280;62699;50.534;12.784;2022-11-20T02:57:44;95758.84;;;-8.97
73894;BMP280;62699;50.534;12.784;2022-11-20T03:02:44;95751.38;;;-8.98
73894;BMP280;62699;50.534;12.784;2022-11-20T03:07:44;95754.31;;;-9.03
73894;BMP280;62699;50.534;12.784;2022-11-20T03:12:45;95745.78;;;-9.07
73894;BMP280;62699;50.534;12.784;2022-11-20T03:17:45;95734.97;;;-9.09
73894;BMP280;62699;50.534;12.784;2022-11-20T03:22:45;95732.38;;;-9.09
73894;BMP280;62699;50.534;12.784;2022-11-20T03:27:46;95729.72;;;-9.13
73894;BMP280;62699;50.534;12.784;2022-11-20T03:32:46;95738.28;;;-9.12
73894;BMP280;62699;50.534;12.784;2022-11-20T03:37:46;95727.50;;;-9.14
73894;BMP280;62699;50.534;12.784;2022-11-20T03:42:47;95731.22;;;-9.15
73894;BMP280;62699;50.534;12.784;2022-11-20T03:47:47;95718.53;;;-9.20
73894;BMP280;62699;50.534;12.784;2022-11-20T03:52:47;95710.72;;;-9.17
73894;BMP280;62699;50.534;12.784;2022-11-20T03:57:48;95707.75;;;-9.15
73894;BMP280;62699;50.534;12.784;2022-11-20T04:02:48;95706.66;;;-9.18
73894;BMP280;62699;50.534;12.784;2022-11-20T04:07:48;95703.25;;;-9.25
73894;BMP280;62699;50.534;12.784;2022-11-20T04:12:49;95700.66;;;-9.25
73894;BMP280;62699;50.534;12.784;2022-11-20T04:17:49;95699.91;;;-9.30
73894;BMP280;62699;50.534;12.784;2022-11-20T04:22:53;95710.69;;;-9.31
73894;BMP280;62699;50.534;12.784;2022-11-20T04:27:53;95711.06;;;-9.33
73894;BMP280;62699;50.534;12.784;2022-11-20T04:32:54;95708.06;;;-9.35
73894;BMP280;62699;50.534;12.784;2022-11-20T04:37:54;95711.03;;;-9.40
73894;BMP280;62699;50.534;12.784;2022-11-20T04:42:55;95703.97;;;-9.36
73894;BMP280;62699;50.534;12.784;2022-11-20T04:47:55;95702.13;;;-9.39
73894;BMP280;62699;50.534;12.784;2022-11-20T04:52:56;95688.69;;;-9.41
73894;BMP280;62699;50.534;12.784;2022-11-20T04:57:56;95690.94;;;-9.43
73894;BMP280;62699;50.534;12.784;2022-11-20T05:02:56;95690.56;;;-9.41
73894;BMP280;62699;50.534;12.784;2022-11-20T05:07:57;95693.53;;;-9.43
73894;BMP280;62699;50.534;12.784;2022-11-20T05:12:57;95688.69;;;-9.48
73894;BMP280;62699;50.534;12.784;2022-11-20T05:17:58;95690.91;;;-9.46
73894;BMP280;62699;50.534;12.784;2022-11-20T05:22:59;95700.97;;;-9.45
73894;BMP280;62699;50.534;12.784;2022-11-20T05:27:59;95689.41;;;-9.51
73894;BMP280;62699;50.534;12.784;2022-11-20T05:32:59;95688.69;;;-9.48
73894;BMP280;62699;50.534;12.784;2022-11-20T05:37:59;95695.75;;;-9.48
73894;BMP280;62699;50.534;12.784;2022-11-20T05:43:00;95687.56;;;-9.47
73894;BMP280;62699;50.534;12.784;2022-11-20T05:48:01;95681.59;;;-9.51
73894;BMP280;62699;50.534;12.784;2022-11-20T05:53:01;95667.47;;;-9.43
73894;BMP280;62699;50.534;12.784;2022-11-20T05:58:01;95655.56;;;-9.40
73894;BMP280;62699;50.534;12.784;2022-11-20T06:03:02;95660.41;;;-9.46
73894;BMP280;62699;50.534;12.784;2022-11-20T06:08:02;95663.38;;;-9.47
73894;BMP280;62699;50.534;12.784;2022-11-20T06:13:02;95665.59;;;-9.46
73894;BMP280;62699;50.534;12.784;2022-11-20T06:18:03;95658.19;;;-9.40
73894;BMP280;62699;50.534;12.784;2022-11-20T06:23:03;95663.75;;;-9.42
73894;BMP280;62699;50.534;12.784;2022-11-20T06:28:03;95673.84;;;-9.26
73894;BMP280;62699;50.534;12.784;2022-11-20T06:33:04;95670.50;;;-9.23
73894;BMP280;62699;50.534;12.784;2022-11-20T06:38:04;95675.72;;;-9.16
73894;BMP280;62699;50.534;12.784;2022-11-20T06:43:04;95686.94;;;-9.01
73894;BMP280;62699;50.534;12.784;2022-11-20T06:48:04;95692.19;;;-8.80
73894;BMP280;62699;50.534;12.784;2022-11-20T06:53:05;95680.63;;;-8.47
73894;BMP280;62699;50.534;12.784;2022-11-20T06:58:05;95675.34;;;-8.22
73894;BMP280;62699;50.534;12.784;2022-11-20T07:03:07;95676.09;;;-8.11
73894;BMP280;62699;50.534;12.784;2022-11-20T07:08:08;95677.56;;;-7.95
73894;BMP280;62699;50.534;12.784;2022-11-20T07:13:08;95675.63;;;-7.84
73894;BMP280;62699;50.534;12.784;2022-11-20T07:18:09;95691.97;;;-7.62
73894;BMP280;62699;50.534;12.784;2022-11-20T07:23:09;95681.81;;;-7.43
73894;BMP280;62699;50.534;12.784;2022-11-20T07:28:09;95673.53;;;-7.30
73894;BMP280;62699;50.534;12.784;2022-11-20T07:33:10;95673.03;;;-7.11
73894;BMP280;62699;50.534;12.784;2022-11-20T07:38:11;95672.16;;;-6.90
73894;BMP280;62699;50.534;12.784;2022-11-20T07:43:11;95659.66;;;-6.72
73894;BMP280;62699;50.534;12.784;2022-11-20T07:48:11;95663.31;;;-6.55
73894;BMP280;62699;50.534;12.784;2022-11-20T07:53:12;95672.06;;;-6.35
73894;BMP280;62699;50.534;12.784;2022-11-20T07:58:13;95667.38;;;-6.13
73894;BMP280;62699;50.534;12.784;2022-11-20T08:03:14;95660.97;;;-5.78
73894;BMP280;62699;50.534;12.784;2022-11-20T08:08:14;95655.09;;;-5.59
73894;BMP280;62699;50.534;12.784;2022-11-20T08:13:14;95658.50;;;-5.32
73894;BMP280;62699;50.534;12.784;2022-11-20T08:18:34;95656.97;;;-5.02
73894;BMP280;62699;50.534;12.784;2022-11-20T08:23:34;95667.38;;;-4.75
73894;BMP280;62699;50.534;12.784;2022-11-20T08:28:37;95670.44;;;-4.53
73894;BMP280;62699;50.534;12.784;2022-11-20T08:33:37;95658.28;;;-4.47
73894;BMP280;62699;50.534;12.784;2022-11-20T08:38:37;95658.25;;;-4.24
73894;BMP280;62699;50.534;12.784;2022-11-20T08:43:38;95638.38;;;-4.05
73894;BMP280;62699;50.534;12.784;2022-11-20T08:48:38;95645.47;;;-3.66
73894;BMP280;62699;50.534;12.784;2022-11-20T08:53:39;95640.22;;;-2.40
73894;BMP280;62699;50.534;12.784;2022-11-20T08:58:40;95654.63;;;-1.61
73894;BMP280;62699;50.534;12.784;2022-11-20T09:03:40;95635.34;;;-2.25
73894;BMP280;62699;50.534;12.784;2022-11-20T09:08:42;95625.25;;;-2.14
73894;BMP280;62699;50.534;12.784;2022-11-20T09:13:42;95616.41;;;-1.69
73894;BMP280;62699;50.534;12.784;2022-11-20T09:18:42;95606.72;;;-1.85
73894;BMP280;62699;50.534;12.784;2022-11-20T09:23:43;95597.84;;;-1.53
73894;BMP280;62699;50.534;12.784;2022-11-20T09:28:43;95607.59;;;-0.81
73894;BMP280;62699;50.534;12.784;2022-11-20T09:33:44;95599.59;;;-0.90
73894;BMP280;62699;50.534;12.784;2022-11-20T09:38:47;95603.84;;;-0.93
73894;BMP280;62699;50.534;12.784;2022-11-20T09:49:28;95614.75;;;-0.25
73894;BMP280;62699;50.534;12.784;2022-11-20T09:54:36;95606.56;;;-0.62
73894;BMP280;62699;50.534;12.784;2022-11-20T09:59:44;95611.53;;;-0.42
73894;BMP280;62699;50.534;12.784;2022-11-20T10:04:51;95616.59;;;-0.13
73894;BMP280;62699;50.534;12.784;2022-11-20T10:09:54;95604.84;;;-0.12
73894;BMP280;62699;50.534;12.784;2022-11-20T10:15:26;95601.81;;;-0.02
73894;BMP280;62699;50.534;12.784;2022-11-20T10:26:05;95598.31;;;0.60
73894;BMP280;62699;50.534;12.784;2022-11-20T10:31:34;95588.63;;;1.02
73894;BMP280;62699;50.534;12.784;2022-11-20T10:36:40;95582.75;;;0.80
73894;BMP280;62699;50.534;12.784;2022-11-20T10:41:41;95583.06;;;0.91
73894;BMP280;62699;50.534;12.784;2022-11-20T10:46:45;95582.13;;;0.76
73894;BMP280;62699;50.534;12.784;2022-11-20T10:56:53;95570.38;;;1.04
73894;BMP280;62699;50.534;12.784;2022-11-20T11:01:57;95575.53;;;1.26
73894;BMP280;62699;50.534;12.784;2022-11-20T11:07:29;95568.00;;;1.25
73894;BMP280;62699;50.534;12.784;2022-11-20T11:12:30;95574.44;;;1.51
73894;BMP280;62699;50.534;12.784;2022-11-20T11:17:32;95569.56;;;1.59
73894;BMP280;62699;50.534;12.784;2022-11-20T11:22:39;95551.63;;;1.35
73894;BMP280;62699;50.534;12.784;2022-11-20T11:27:49;95548.59;;;1.19
73894;BMP280;62699;50.534;12.784;2022-11-20T11:32:50;95543.00;;;0.89
73894;BMP280;62699;50.534;12.784;2022-11-20T11:37:51;95538.41;;;0.71
73894;BMP280;62699;50.534;12.784;2022-11-20T11:42:57;95549.00;;;0.62
73894;BMP280;62699;50.534;12.784;2022-11-20T11:48:00;95545.31;;;0.51
73894;BMP280;62699;50.534;12.784;2022-11-20T11:53:13;95547.94;;;0.42
73894;BMP280;62699;50.534;12.784;2022-11-20T12:03:38;95545.13;;;0.18
73894;BMP280;62699;50.534;12.784;2022-11-20T12:08:59;95558.50;;;0.14
73894;BMP280;62699;50.534;12.784;2022-11-20T12:14:17;95549.34;;;0.06
73894;BMP280;62699;50.534;12.784;2022-11-20T12:19:19;95541.72;;;0.08
73894;BMP280;62699;50.534;12.784;2022-11-20T12:29:58;95540.25;;;0.07
73894;BMP280;62699;50.534;12.784;2022-11-20T12:40:35;95534.66;;;0.14
73894;BMP280;62699;50.534;12.784;2022-11-20T12:46:29;95543.06;;;0.22
73894;BMP280;62699;50.534;12.784;2022-11-20T12:51:51;95534.13;;;0.19
73894;BMP280;62699;50.534;12.784;2022-11-20T12:57:01;95530.44;;;0.26
73894;BMP280;62699;50.534;12.784;2022-11-20T13:02:26;95527.03;;;0.34
73894;BMP280;62699;50.534;12.784;2022-11-20T13:07:28;95516.91;;;0.42
73894;BMP280;62699;50.534;12.784;2022-11-20T13:12:43;95514.00;;;0.49
73894;BMP280;62699;50.534;12.784;2022-11-20T13:17:59;95525.31;;;0.50
73894;BMP280;62699;50.534;12.784;2022-11-20T13:23:00;95508.84;;;0.64
73894;BMP280;62699;50.534;12.784;2022-11-20T13:28:04;95505.91;;;0.71
73894;BMP280;62699;50.534;12.784;2022-11-20T13:33:22;95503.53;;;0.82
73894;BMP280;62699;50.534;12.784;2022-11-20T13:38:23;95508.84;;;0.91
73894;BMP280;62699;50.534;12.784;2022-11-20T13:43:34;95513.56;;;0.96
73894;BMP280;62699;50.534;12.784;2022-11-20T13:48:40;95517.97;;;0.90
73894;BMP280;62699;50.534;12.784;2022-11-20T13:53:57;95529.47;;;0.87
73894;BMP280;62699;50.534;12.784;2022-11-20T14:04:35;95528.84;;;0.83
73894;BMP280;62699;50.534;12.784;2022-11-20T14:09:35;95522.38;;;0.84
73894;BMP280;62699;50.534;12.784;2022-11-20T14:14:50;95519.00;;;0.84
73894;BMP280;62699;50.534;12.784;2022-11-20T14:19:52;95529.91;;;0.86
73894;BMP280;62699;50.534;12.784;2022-11-20T14:25:26;95531.22;;;0.81
73894;BMP280;62699;50.534;12.784;2022-11-20T14:30:43;95533.59;;;0.79
73894;BMP280;62699;50.534;12.784;2022-11-20T14:35:47;95525.63;;;0.70
73894;BMP280;62699;50.534;12.784;2022-11-20T14:40:48;95522.81;;;0.64
73894;BMP280;62699;50.534;12.784;2022-11-20T14:45:55;95518.56;;;0.58
73894;BMP280;62699;50.534;12.784;2022-11-20T14:50:57;95525.31;;;0.59
73894;BMP280;62699;50.534;12.784;2022-11-20T14:55:59;95525.16;;;0.53
73894;BMP280;62699;50.534;12.784;2022-11-20T15:01:05;95527.22;;;0.49
73894;BMP280;62699;50.534;12.784;2022-11-20T15:06:07;95520.59;;;0.45
73894;BMP280;62699;50.534;12.784;2022-11-20T15:11:20;95512.50;;;0.39
73894;BMP280;62699;50.534;12.784;2022-11-20T15:16:23;95512.53;;;0.30
73894;BMP280;62699;50.534;12.784;2022-11-20T15:21:24;95512.47;;;0.21
73894;BMP280;62699;50.534;12.784;2022-11-20T15:26:26;95507.47;;;0.14
73894;BMP280;62699;50.534;12.784;2022-11-20T15:31:28;95514.09;;;0.09
73894;BMP280;62699;50.534;12.784;2022-11-20T15:36:28;95518.47;;;0.03
73894;BMP280;62699;50.534;12.784;2022-11-20T15:41:28;95517.00;;;0.02
73894;BMP280;62699;50.534;12.784;2022-11-20T15:46:30;95513.47;;;0.05
73894;BMP280;62699;50.534;12.784;2022-11-20T15:51:36;95522.16;;;0.06
73894;BMP280;62699;50.534;12.784;2022-11-20T15:56:37;95529.34;;;0.05
73894;BMP280;62699;50.534;12.784;2022-11-20T16:01:37;95529.66;;;0.07
73894;BMP280;62699;50.534;12.784;2022-11-20T16:06:38;95529.06;;;0.03
73894;BMP280;62699;50.534;12.784;2022-11-20T16:11:38;95539.28;;;-0.08
73894;BMP280;62699;50.534;12.784;2022-11-20T16:16:38;95528.88;;;-0.12
73894;BMP280;62699;50.534;12.784;2022-11-20T16:21:40;95536.50;;;-0.14
73894;BMP280;62699;50.534;12.784;2022-11-20T16:26:42;95527.22;;;-0.18
73894;BMP280;62699;50.534;12.784;2022-11-20T16:31:42;95520.28;;;-0.25
73894;BMP280;62699;50.534;12.784;2022-11-20T16:36:43;95528.66;;;-0.26
73894;BMP280;62699;50.534;12.784;2022-11-20T16:41:44;95517.47;;;-0.30
73894;BMP280;62699;50.534;12.784;2022-11-20T16:46:45;95519.78;;;-0.32
73894;BMP280;62699;50.534;12.784;2022-11-20T16:51:45;95521.38;;;-0.35
73894;BMP280;62699;50.534;12.784;2022-11-20T16:56:46;95510.19;;;-0.39
73894;BMP280;62699;50.534;12.784;2022-11-20T17:01:47;95520.19;;;-0.43
73894;BMP280;62699;50.534;12.784;2022-11-20T17:06:47;95509.84;;;-0.50
73894;BMP280;62699;50.534;12.784;2022-11-20T17:11:48;95516.88;;;-0.56
73894;BMP280;62699;50.534;12.784;2022-11-20T17:16:48;95507.91;;;-0.59
73894;BMP280;62699;50.534;12.784;2022-11-20T17:21:49;95495.81;;;-0.69
73894;BMP280;62699;50.534;12.784;2022-11-20T17:26:49;95488.78;;;-0.94
73894;BMP280;62699;50.534;12.784;2022-11-20T17:31:50;95489.78;;;-1.22
73894;BMP280;62699;50.534;12.784;2022-11-20T17:36:50;95492.03;;;-1.46
73894;BMP280;62699;50.534;12.784;2022-11-20T17:41:50;95499.50;;;-1.66
73894;BMP280;62699;50.534;12.784;2022-11-20T17:47:11;95497.63;;;-1.78
73894;BMP280;62699;50.534;12.784;2022-11-20T17:52:11;95494.66;;;-1.80
73894;BMP280;62699;50.534;12.784;2022-11-20T17:57:11;95489.59;;;-1.88
73894;BMP280;62699;50.534;12.784;2022-11-20T18:02:30;95498.66;;;-1.89
73894;BMP280;62699;50.534;12.784;2022-11-20T18:07:32;95492.34;;;-1.78
73894;BMP280;62699;50.534;12.784;2022-11-20T18:12:32;95478.50;;;-1.70
73894;BMP280;62699;50.534;12.784;2022-11-20T18:17:33;95471.06;;;-1.62
73894;BMP280;62699;50.534;12.784;2022-11-20T18:22:34;95461.03;;;-1.55
73894;BMP280;62699;50.534;12.784;2022-11-20T18:27:34;95456.38;;;-1.51
73894;BMP280;62699;50.534;12.784;2022-11-20T18:32:34;95444.16;;;-1.57
73894;BMP280;62699;50.534;12.784;2022-11-20T18:37:35;95439.53;;;-1.66
73894;BMP280;62699;50.534;12.784;2022-11-20T18:42:35;95441.38;;;-1.75
73894;BMP280;62699;50.534;12.784;2022-11-20T18:47:54;95437.06;;;-1.82
73894;BMP280;62699;50.534;12.784;2022-11-20T18:52:54;95418.63;;;-1.95
73894;BMP280;62699;50.534;12.784;2022-11-20T18:57:55;95415.59;;;-2.06
73894;BMP280;62699;50.534;12.784;2022-11-20T19:02:55;95410.97;;;-2.14
73894;BMP280;62699;50.534;12.784;2022-11-20T19:07:55;95400.22;;;-2.20
73894;BMP280;62699;50.534;12.784;2022-11-20T19:12:56;95405.38;;;-2.16
73894;BMP280;62699;50.534;12.784;2022-11-20T19:17:57;95398.38;;;-2.10
73894;BMP280;62699;50.534;12.784;2022-11-20T19:23:00;95390.56;;;-2.01
73894;BMP280;62699;50.534;12.784;2022-11-20T19:28:00;95395.16;;;-1.93
73894;BMP280;62699;50.534;12.784;2022-11-20T19:33:00;95400.25;;;-1.86
73894;BMP280;62699;50.534;12.784;2022-11-20T19:38:01;95392.84;;;-1.78
73894;BMP280;62699;50.534;12.784;2022-11-20T19:43:01;95382.47;;;-1.72
73894;BMP280;62699;50.534;12.784;2022-11-20T19:48:02;95384.88;;;-1.65
73894;BMP280;62699;50.534;12.784;2022-11-20T19:53:02;95373.03;;;-1.61
73894;BMP280;62699;50.534;12.784;2022-11-20T19:58:02;95374.69;;;-1.54
73894;BMP280;62699;50.534;12.784;2022-11-20T20:03:03;95382.03;;;-1.49
73894;BMP280;62699;50.534;12.784;2022-11-20T20:08:03;95375.19;;;-1.47
73894;BMP280;62699;50.534;12.784;2022-11-20T20:13:04;95363.31;;;-1.42
73894;BMP280;62699;50.534;12.784;2022-11-20T20:18:04;95353.06;;;-1.40
73894;BMP280;62699;50.534;12.784;2022-11-20T20:23:05;95355.16;;;-1.35
73894;BMP280;62699;50.534;12.784;2022-11-20T20:28:08;95334.78;;;-1.34
73894;BMP280;62699;50.534;12.784;2022-11-20T20:33:08;95331.59;;;-1.29
73894;BMP280;62699;50.534;12.784;2022-11-20T20:38:08;95325.03;;;-1.25
73894;BMP280;62699;50.534;12.784;2022-11-20T20:43:09;95316.22;;;-1.22
73894;BMP280;62699;50.534;12.784;2022-11-20T20:48:09;95314.63;;;-1.19
73894;BMP280;62699;50.534;12.784;2022-11-20T20:53:09;95310.69;;;-1.15
73894;BMP280;62699;50.534;12.784;2022-11-20T20:58:10;95302.34;;;-1.13
73894;BMP280;62699;50.534;12.784;2022-11-20T21:03:10;95289.72;;;-1.09
73894;BMP280;62699;50.534;12.784;2022-11-20T21:08:11;95279.47;;;-1.07
73894;BMP280;62699;50.534;12.784;2022-11-20T21:13:21;95265.09;;;-1.06
73894;BMP280;62699;50.534;12.784;2022-11-20T21:18:22;95259.09;;;-1.06
73894;BMP280;62699;50.534;12.784;2022-11-20T21:23:23;95250.88;;;-1.08
73894;BMP280;62699;50.534;12.784;2022-11-20T21:28:23;95250.13;;;-1.09
73894;BMP280;62699;50.534;12.784;2022-11-20T21:33:23;95225.63;;;-1.10
73894;BMP280;62699;50.534;12.784;2022-11-20T21:38:24;95223.75;;;-1.00
73894;BMP280;62699;50.534;12.784;2022-11-20T21:43:27;95212.47;;;-0.82
73894;BMP280;62699;50.534;12.784;2022-11-20T21:48:30;95202.97;;;-0.61
73894;BMP280;62699;50.534;12.784;2022-11-20T21:53:30;95205.44;;;-0.40
73894;BMP280;62699;50.534;12.784;2022-11-20T21:58:32;95199.72;;;-0.20
73894;BMP280;62699;50.534;12.784;2022-11-20T22:03:33;95194.53;;;0.04
73894;BMP280;62699;50.534;12.784;2022-11-20T22:08:35;95192.72;;;0.28
73894;BMP280;62699;50.534;12.784;2022-11-20T22:13:35;95187.44;;;0.28
73894;BMP280;62699;50.534;12.784;2022-11-20T22:18:56;95174.19;;;0.52
73894;BMP280;62699;50.534;12.784;2022-11-20T22:23:57;95177.72;;;0.82
73894;BMP280;62699;50.534;12.784;2022-11-20T22:28:58;95159.00;;;0.62
73894;BMP280;62699;50.534;12.784;2022-11-20T22:34:00;95159.03;;;0.53
73894;BMP280;62699;50.534;12.784;2022-11-20T22:39:01;95149.13;;;0.38
73894;BMP280;62699;50.534;12.784;2022-11-20T22:44:04;95138.91;;;0.22
73894;BMP280;62699;50.534;12.784;2022-11-20T22:49:06;95137.19;;;0.19
73894;BMP280;62699;50.534;12.784;2022-11-20T22:54:15;95130.38;;;0.27
73894;BMP280;62699;50.534;12.784;2022-11-20T22:59:16;95122.72;;;0.29
73894;BMP280;62699;50.534;12.784;2022-11-20T23:04:17;95116.19;;;0.40
73894;BMP280;62699;50.534;12.784;2022-11-20T23:09:17;95110.56;;;0.47
73894;BMP280;62699;50.534;12.784;2022-11-20T23:14:18;95106.38;;;0.55
73894;BMP280;62699;50.534;12.784;2022-11-20T23:19:18;95104.34;;;0.73
73894;BMP280;62699;50.534;12.784;2022-11-20T23:24:18;95097.13;;;0.74
73894;BMP280;62699;50.534;12.784;2022-11-20T23:29:19;95099.72;;;0.83
73894;BMP280;62699;50.534;12.784;2022-11-20T23:34:19;95092.34;;;0.87
73894;BMP280;62699;50.534;12.784;2022-11-20T23:39:19;95086.41;;;0.92
73894;BMP280;62699;50.534;12.784;2022-11-20T23:44:19;95077.50;;;1.04
73894;BMP280;62699;50.534;12.784;2022-11-20T23:49:20;95067.75;;;1.10
73894;BMP280;62699;50.534;12.784;2022-11-20T23:54:20;95051.38;;;1.41
73894;BMP280;62699;50.534;12.784;2022-11-20T23:59:21;95055.59;;;1.48
